createdAt,value
2023-01-22T00:00:04.404Z,1018.81
2023-01-22T00:01:04.694Z,1018.81
2023-01-22T00:02:04.197Z,1018.80
2023-01-22T00:03:04.428Z,1018.80
2023-01-22T00:04:04.286Z,1018.82
2023-01-22T00:05:03.879Z,1018.83
2023-01-22T00:06:03.799Z,1018.81
2023-01-22T00:07:04.556Z,1018.84
2023-01-22T00:08:04.692Z,1018.85
2023-01-22T00:09:04.119Z,1018.80
2023-01-22T00:10:04.086Z,1018.74
2023-01-22T00:11:04.560Z,1018.77
2023-01-22T00:12:03.923Z,1018.79
2023-01-22T00:13:03.824Z,1018.75
2023-01-22T00:14:03.967Z,1018.76
2023-01-22T00:15:04.115Z,1018.76
2023-01-22T00:16:04.345Z,1018.80
2023-01-22T00:17:04.277Z,1018.80
2023-01-22T00:18:04.106Z,1018.69
2023-01-22T00:19:04.268Z,1018.70
2023-01-22T00:20:04.193Z,1018.72
2023-01-22T00:21:04.493Z,1018.74
2023-01-22T00:22:03.506Z,1018.69
2023-01-22T00:23:04.065Z,1018.73
2023-01-22T00:24:03.853Z,1018.70
2023-01-22T00:25:03.797Z,1018.74
2023-01-22T00:26:03.615Z,1018.73
2023-01-22T00:27:03.970Z,1018.73
2023-01-22T00:28:03.780Z,1018.69
2023-01-22T00:29:03.939Z,1018.65
2023-01-22T00:30:03.909Z,1018.70
2023-01-22T00:31:04.246Z,1018.71
2023-01-22T00:32:04.827Z,1018.71
2023-01-22T00:33:04.262Z,1018.64
2023-01-22T00:34:04.320Z,1018.60
2023-01-22T00:35:04.415Z,1018.60
2023-01-22T00:36:04.513Z,1018.66
2023-01-22T00:37:03.399Z,1018.59
2023-01-22T00:38:03.810Z,1018.58
2023-01-22T00:39:04.009Z,1018.57
2023-01-22T00:40:03.713Z,1018.58
2023-01-22T00:41:03.780Z,1018.61
2023-01-22T00:42:03.912Z,1018.63
2023-01-22T00:43:03.991Z,1018.60
2023-01-22T00:44:03.933Z,1018.65
2023-01-22T00:45:03.897Z,1018.57
2023-01-22T00:46:04.119Z,1018.53
2023-01-22T00:47:04.373Z,1018.53
2023-01-22T00:48:04.235Z,1018.58
2023-01-22T00:49:04.524Z,1018.55
2023-01-22T00:50:04.357Z,1018.52
2023-01-22T00:51:04.337Z,1018.53
2023-01-22T00:52:04.603Z,1018.44
2023-01-22T00:53:04.682Z,1018.54
2023-01-22T00:54:04.528Z,1018.52
2023-01-22T00:55:04.545Z,1018.49
2023-01-22T00:56:04.281Z,1018.55
2023-01-22T00:57:04.011Z,1018.52
2023-01-22T00:58:03.825Z,1018.55
2023-01-22T00:59:03.937Z,1018.49
2023-01-22T01:00:03.907Z,1018.48
2023-01-22T01:01:03.599Z,1018.49
2023-01-22T01:02:04.260Z,1018.44
2023-01-22T01:03:04.235Z,1018.47
2023-01-22T01:04:04.263Z,1018.50
2023-01-22T01:05:04.305Z,1018.53
2023-01-22T01:06:04.246Z,1018.48
2023-01-22T01:07:04.228Z,1018.46
2023-01-22T01:08:04.214Z,1018.48
2023-01-22T01:09:04.226Z,1018.48
2023-01-22T01:10:04.250Z,1018.47
2023-01-22T01:11:04.258Z,1018.50
2023-01-22T01:12:04.096Z,1018.54
2023-01-22T01:13:04.525Z,1018.46
2023-01-22T01:14:04.329Z,1018.46
2023-01-22T01:15:04.006Z,1018.49
2023-01-22T01:16:04.047Z,1018.52
2023-01-22T01:17:03.329Z,1018.45
2023-01-22T01:18:03.370Z,1018.45
2023-01-22T01:19:03.323Z,1018.39
2023-01-22T01:20:03.617Z,1018.39
2023-01-22T01:21:03.494Z,1018.48
2023-01-22T01:22:03.415Z,1018.45
2023-01-22T01:23:03.767Z,1018.40
2023-01-22T01:24:03.997Z,1018.40
2023-01-22T01:25:03.395Z,1018.42
2023-01-22T01:26:03.370Z,1018.44
2023-01-22T01:27:04.098Z,1018.43
2023-01-22T01:28:04.204Z,1018.40
2023-01-22T01:29:03.993Z,1018.43
2023-01-22T01:30:03.917Z,1018.40
2023-01-22T01:31:04.186Z,1018.43
2023-01-22T01:32:03.361Z,1018.44
2023-01-22T01:33:03.226Z,1018.43
2023-01-22T01:34:03.220Z,1018.41
2023-01-22T01:35:03.157Z,1018.38
2023-01-22T01:36:03.042Z,1018.32
2023-01-22T01:37:03.693Z,1018.37
2023-01-22T01:38:04.017Z,1018.33
2023-01-22T01:39:03.577Z,1018.28
2023-01-22T01:40:03.550Z,1018.36
2023-01-22T01:41:03.498Z,1018.36
2023-01-22T01:42:04.083Z,1018.33
2023-01-22T01:43:04.142Z,1018.38
2023-01-22T01:44:04.167Z,1018.43
2023-01-22T01:45:04.283Z,1018.33
2023-01-22T01:46:04.202Z,1018.32
2023-01-22T01:47:03.331Z,1018.35
2023-01-22T01:48:03.666Z,1018.35
2023-01-22T01:49:03.026Z,1018.31
2023-01-22T01:50:02.882Z,1018.33
2023-01-22T01:51:03.239Z,1018.33
2023-01-22T01:52:03.982Z,1018.29
2023-01-22T01:53:03.928Z,1018.33
2023-01-22T01:54:04.027Z,1018.37
2023-01-22T01:55:03.771Z,1018.32
2023-01-22T01:56:03.551Z,1018.28
2023-01-22T01:57:03.561Z,1018.30
2023-01-22T01:58:03.311Z,1018.33
2023-01-22T01:59:03.319Z,1018.37
2023-01-22T02:00:03.517Z,1018.36
2023-01-22T02:01:03.854Z,1018.32
2023-01-22T02:02:04.392Z,1018.32
2023-01-22T02:03:04.260Z,1018.36
2023-01-22T02:04:04.101Z,1018.35
2023-01-22T02:05:04.326Z,1018.30
2023-01-22T02:06:04.544Z,1018.30
2023-01-22T02:07:04.623Z,1018.33
2023-01-22T02:08:04.526Z,1018.36
2023-01-22T02:09:04.589Z,1018.33
2023-01-22T02:10:04.561Z,1018.29
2023-01-22T02:11:04.469Z,1018.31
2023-01-22T02:12:03.915Z,1018.36
2023-01-22T02:13:04.239Z,1018.31
2023-01-22T02:14:04.137Z,1018.35
2023-01-22T02:15:04.131Z,1018.33
2023-01-22T02:16:04.194Z,1018.34
2023-01-22T02:17:04.327Z,1018.30
2023-01-22T02:18:03.861Z,1018.33
2023-01-22T02:19:03.853Z,1018.32
2023-01-22T02:20:03.836Z,1018.28
2023-01-22T02:21:04.079Z,1018.27
2023-01-22T02:22:04.818Z,1018.26
2023-01-22T02:23:04.652Z,1018.30
2023-01-22T02:24:04.925Z,1018.35
2023-01-22T02:25:04.835Z,1018.32
2023-01-22T02:26:04.773Z,1018.28
2023-01-22T02:27:04.538Z,1018.26
2023-01-22T02:28:04.331Z,1018.27
2023-01-22T02:29:04.540Z,1018.31
2023-01-22T02:30:04.529Z,1018.28
2023-01-22T02:31:04.596Z,1018.30
2023-01-22T02:32:04.275Z,1018.27
2023-01-22T02:33:04.376Z,1018.30
2023-01-22T02:34:04.322Z,1018.26
2023-01-22T02:35:04.294Z,1018.32
2023-01-22T02:36:04.355Z,1018.28
2023-01-22T02:37:04.343Z,1018.22
2023-01-22T02:38:04.629Z,1018.25
2023-01-22T02:39:03.989Z,1018.23
2023-01-22T02:40:04.388Z,1018.21
2023-01-22T02:41:04.280Z,1018.15
2023-01-22T02:42:04.531Z,1018.20
2023-01-22T02:43:04.637Z,1018.19
2023-01-22T02:44:04.398Z,1018.16
2023-01-22T02:45:04.446Z,1018.13
2023-01-22T02:46:04.104Z,1018.14
2023-01-22T02:47:04.825Z,1018.18
2023-01-22T02:48:04.786Z,1018.21
2023-01-22T02:49:04.742Z,1018.19
2023-01-22T02:50:04.430Z,1018.17
2023-01-22T02:51:04.453Z,1018.13
2023-01-22T02:52:04.186Z,1018.22
2023-01-22T02:53:04.045Z,1018.18
2023-01-22T02:54:04.082Z,1018.20
2023-01-22T02:55:04.072Z,1018.16
2023-01-22T02:56:04.072Z,1018.19
2023-01-22T02:57:04.811Z,1018.19
2023-01-22T02:58:04.685Z,1018.22
2023-01-22T02:59:04.707Z,1018.23
2023-01-22T03:00:04.820Z,1018.22
2023-01-22T03:01:04.374Z,1018.22
2023-01-22T03:02:04.134Z,1018.25
2023-01-22T03:03:03.497Z,1018.31
2023-01-22T03:04:03.682Z,1018.27
2023-01-22T03:05:03.898Z,1018.27
2023-01-22T03:06:03.749Z,1018.25
2023-01-22T03:07:04.491Z,1018.24
2023-01-22T03:08:04.172Z,1018.24
2023-01-22T03:09:04.222Z,1018.22
2023-01-22T03:10:04.265Z,1018.18
2023-01-22T03:11:03.849Z,1018.13
2023-01-22T03:12:03.001Z,1018.19
2023-01-22T03:13:03.236Z,1018.11
2023-01-22T03:14:03.208Z,1018.09
2023-01-22T03:15:02.966Z,1018.09
2023-01-22T03:16:03.309Z,1018.05
2023-01-22T03:17:03.355Z,1018.07
2023-01-22T03:18:03.562Z,1018.05
2023-01-22T03:19:03.516Z,1018.09
2023-01-22T03:20:03.432Z,1018.05
2023-01-22T03:21:03.551Z,1018.02
2023-01-22T03:22:04.096Z,1017.98
2023-01-22T03:23:04.134Z,1018.05
2023-01-22T03:24:04.104Z,1018.03
2023-01-22T03:25:03.458Z,1018.00
2023-01-22T03:26:03.649Z,1017.96
2023-01-22T03:27:03.635Z,1017.94
2023-01-22T03:28:03.908Z,1017.86
2023-01-22T03:29:03.901Z,1017.90
2023-01-22T03:30:03.937Z,1017.84
2023-01-22T03:31:03.947Z,1017.86
2023-01-22T03:32:03.160Z,1017.85
2023-01-22T03:33:03.187Z,1017.88
2023-01-22T03:34:03.148Z,1017.91
2023-01-22T03:35:03.036Z,1017.93
2023-01-22T03:36:03.325Z,1017.90
2023-01-22T03:37:03.603Z,1017.91
2023-01-22T03:38:03.522Z,1017.91
2023-01-22T03:39:04.038Z,1017.89
2023-01-22T03:40:04.043Z,1017.97
2023-01-22T03:41:03.449Z,1017.92
2023-01-22T03:42:03.767Z,1017.96
2023-01-22T03:43:03.829Z,1017.96
2023-01-22T03:44:03.662Z,1018.00
2023-01-22T03:45:03.846Z,1018.00
2023-01-22T03:46:04.092Z,1018.03
2023-01-22T03:47:03.745Z,1018.02
2023-01-22T03:48:03.761Z,1017.95
2023-01-22T03:49:03.853Z,1017.93
2023-01-22T03:50:03.887Z,1017.99
2023-01-22T03:51:03.978Z,1017.96
2023-01-22T03:52:03.439Z,1018.01
2023-01-22T03:53:03.514Z,1018.00
2023-01-22T03:54:03.414Z,1017.97
2023-01-22T03:55:02.902Z,1017.99
2023-01-22T03:56:03.452Z,1017.99
2023-01-22T03:57:03.776Z,1017.90
2023-01-22T03:58:03.863Z,1017.99
2023-01-22T03:59:03.487Z,1018.01
2023-01-22T04:00:03.764Z,1018.06
2023-01-22T04:01:03.972Z,1017.96
2023-01-22T04:02:03.127Z,1017.90
2023-01-22T04:03:03.181Z,1017.93
2023-01-22T04:04:03.028Z,1017.89
2023-01-22T04:05:02.986Z,1017.91
2023-01-22T04:06:03.064Z,1017.94
2023-01-22T04:07:02.857Z,1017.97
2023-01-22T04:08:03.149Z,1017.97
2023-01-22T04:09:03.551Z,1018.03
2023-01-22T04:10:02.867Z,1018.06
2023-01-22T04:11:03.135Z,1018.02
2023-01-22T04:12:03.030Z,1018.02
2023-01-22T04:13:03.440Z,1018.08
2023-01-22T04:14:03.414Z,1018.06
2023-01-22T04:15:03.176Z,1017.98
2023-01-22T04:16:03.113Z,1017.96
2023-01-22T04:17:03.070Z,1018.04
2023-01-22T04:18:02.952Z,1017.94
2023-01-22T04:19:02.894Z,1017.94
2023-01-22T04:20:03.067Z,1017.92
2023-01-22T04:21:03.022Z,1017.97
2023-01-22T04:22:04.020Z,1017.89
2023-01-22T04:23:03.998Z,1017.94
2023-01-22T04:24:03.647Z,1017.94
2023-01-22T04:25:03.694Z,1017.96
2023-01-22T04:26:03.617Z,1017.97
2023-01-22T04:27:03.600Z,1018.01
2023-01-22T04:28:03.532Z,1018.00
2023-01-22T04:29:03.545Z,1018.00
2023-01-22T04:30:03.559Z,1018.09
2023-01-22T04:31:03.623Z,1017.99
2023-01-22T04:32:03.253Z,1018.07
2023-01-22T04:33:03.198Z,1018.01
2023-01-22T04:34:02.965Z,1018.09
2023-01-22T04:35:03.130Z,1018.07
2023-01-22T04:36:03.064Z,1018.06
2023-01-22T04:37:02.733Z,1018.06
2023-01-22T04:38:02.736Z,1018.10
2023-01-22T04:39:02.752Z,1018.05
2023-01-22T04:40:02.678Z,1018.06
2023-01-22T04:41:02.574Z,1018.08
2023-01-22T04:42:03.217Z,1018.02
2023-01-22T04:43:03.120Z,1018.03
2023-01-22T04:44:03.111Z,1018.01
2023-01-22T04:45:03.059Z,1018.03
2023-01-22T04:46:03.093Z,1017.99
2023-01-22T04:47:02.839Z,1018.04
2023-01-22T04:48:02.720Z,1018.01
2023-01-22T04:49:02.639Z,1018.04
2023-01-22T04:50:02.652Z,1018.02
2023-01-22T04:51:02.661Z,1018.05
2023-01-22T04:52:03.339Z,1018.01
2023-01-22T04:53:03.532Z,1018.04
2023-01-22T04:54:03.554Z,1018.04
2023-01-22T04:55:02.920Z,1017.98
2023-01-22T04:56:03.188Z,1018.02
2023-01-22T04:57:03.697Z,1018.02
2023-01-22T04:58:03.718Z,1017.99
2023-01-22T04:59:03.684Z,1017.91
2023-01-22T05:00:03.633Z,1017.91
2023-01-22T05:01:03.863Z,1017.99
2023-01-22T05:02:04.511Z,1017.92
2023-01-22T05:03:04.627Z,1017.92
2023-01-22T05:04:04.643Z,1017.97
2023-01-22T05:05:04.584Z,1017.96
2023-01-22T05:06:04.629Z,1017.90
2023-01-22T05:07:04.198Z,1017.94
2023-01-22T05:08:04.213Z,1018.02
2023-01-22T05:09:04.310Z,1017.99
2023-01-22T05:10:04.187Z,1017.96
2023-01-22T05:11:04.282Z,1017.95
2023-01-22T05:12:04.616Z,1017.98
2023-01-22T05:13:04.713Z,1018.00
2023-01-22T05:14:04.508Z,1017.97
2023-01-22T05:15:15.039Z,1017.96
2023-01-22T05:16:04.680Z,1017.98
2023-01-22T05:17:04.440Z,1017.99
2023-01-22T05:18:04.377Z,1018.04
2023-01-22T05:19:04.073Z,1018.06
2023-01-22T05:20:04.270Z,1017.98
2023-01-22T05:21:04.219Z,1017.99
2023-01-22T05:22:04.782Z,1017.96
2023-01-22T05:23:04.723Z,1017.96
2023-01-22T05:24:05.252Z,1017.93
2023-01-22T05:25:04.574Z,1017.95
2023-01-22T05:26:04.567Z,1017.99
2023-01-22T05:27:04.038Z,1017.92
2023-01-22T05:28:04.001Z,1017.97
2023-01-22T05:29:03.994Z,1017.92
2023-01-22T05:30:03.961Z,1017.97
2023-01-22T05:31:04.006Z,1017.97
2023-01-22T05:32:04.627Z,1018.03
2023-01-22T05:33:04.481Z,1018.02
2023-01-22T05:34:04.550Z,1018.01
2023-01-22T05:35:04.461Z,1018.15
2023-01-22T05:36:04.492Z,1018.12
2023-01-22T05:37:04.246Z,1018.12
2023-01-22T05:38:04.285Z,1018.11
2023-01-22T05:39:04.237Z,1018.10
2023-01-22T05:40:03.783Z,1018.09
2023-01-22T05:41:03.745Z,1018.09
2023-01-22T05:42:04.383Z,1018.02
2023-01-22T05:43:04.773Z,1018.09
2023-01-22T05:44:04.125Z,1018.06
2023-01-22T05:45:04.216Z,1018.05
2023-01-22T05:46:04.210Z,1018.08
2023-01-22T05:47:04.584Z,1018.03
2023-01-22T05:48:04.543Z,1018.00
2023-01-22T05:49:04.325Z,1018.08
2023-01-22T05:50:04.538Z,1018.06
2023-01-22T05:51:04.571Z,1018.10
2023-01-22T05:52:04.390Z,1018.07
2023-01-22T05:53:04.270Z,1018.06
2023-01-22T05:54:03.754Z,1018.03
2023-01-22T05:55:04.032Z,1018.08
2023-01-22T05:56:03.988Z,1018.05
2023-01-22T05:57:04.569Z,1018.07
2023-01-22T05:58:06.314Z,1017.99
2023-01-22T05:59:04.371Z,1018.04
2023-01-22T06:00:04.372Z,1018.05
2023-01-22T06:01:04.589Z,1018.11
2023-01-22T06:02:04.837Z,1018.09
2023-01-22T06:03:04.822Z,1018.11
2023-01-22T06:04:04.667Z,1018.03
2023-01-22T06:05:04.588Z,1018.09
2023-01-22T06:06:04.528Z,1018.08
2023-01-22T06:07:05.203Z,1018.06
2023-01-22T06:08:05.083Z,1018.02
2023-01-22T06:09:05.148Z,1018.08
2023-01-22T06:10:05.055Z,1018.04
2023-01-22T06:11:04.929Z,1018.07
2023-01-22T06:12:04.513Z,1018.10
2023-01-22T06:13:04.381Z,1018.10
2023-01-22T06:14:04.354Z,1018.07
2023-01-22T06:15:04.383Z,1018.05
2023-01-22T06:16:04.170Z,1018.08
2023-01-22T06:17:04.556Z,1018.07
2023-01-22T06:18:04.483Z,1018.05
2023-01-22T06:19:04.457Z,1018.05
2023-01-22T06:20:04.488Z,1018.06
2023-01-22T06:21:04.513Z,1018.04
2023-01-22T06:22:03.547Z,1018.00
2023-01-22T06:23:03.692Z,1018.01
2023-01-22T06:24:03.650Z,1018.04
2023-01-22T06:25:03.597Z,1017.98
2023-01-22T06:26:03.632Z,1017.99
2023-01-22T06:27:03.627Z,1018.00
2023-01-22T06:28:03.889Z,1018.02
2023-01-22T06:29:03.740Z,1018.00
2023-01-22T06:30:03.705Z,1018.05
2023-01-22T06:31:03.783Z,1018.03
2023-01-22T06:32:03.778Z,1017.99
2023-01-22T06:33:04.135Z,1018.02
2023-01-22T06:34:04.568Z,1018.01
2023-01-22T06:35:03.826Z,1017.95
2023-01-22T06:36:03.761Z,1018.02
2023-01-22T06:37:04.041Z,1017.99
2023-01-22T06:38:04.665Z,1018.02
2023-01-22T06:39:04.101Z,1017.97
2023-01-22T06:40:04.139Z,1018.00
2023-01-22T06:41:04.036Z,1017.95
2023-01-22T06:42:04.290Z,1018.01
2023-01-22T06:43:04.308Z,1018.07
2023-01-22T06:44:04.282Z,1018.02
2023-01-22T06:45:04.202Z,1018.11
2023-01-22T06:46:04.434Z,1018.14
2023-01-22T06:47:04.247Z,1018.19
2023-01-22T06:48:04.319Z,1018.21
2023-01-22T06:49:04.361Z,1018.14
2023-01-22T06:50:04.275Z,1018.20
2023-01-22T06:51:04.398Z,1018.25
2023-01-22T06:52:03.484Z,1018.28
2023-01-22T06:53:03.525Z,1018.25
2023-01-22T06:54:03.503Z,1018.19
2023-01-22T06:55:03.539Z,1018.15
2023-01-22T06:56:03.600Z,1018.17
2023-01-22T06:57:03.752Z,1018.16
2023-01-22T06:58:03.709Z,1018.23
2023-01-22T06:59:03.695Z,1018.23
2023-01-22T07:00:04.003Z,1018.26
2023-01-22T07:01:04.087Z,1018.27
2023-01-22T07:02:04.607Z,1018.33
2023-01-22T07:03:04.614Z,1018.31
2023-01-22T07:04:04.268Z,1018.33
2023-01-22T07:05:04.461Z,1018.39
2023-01-22T07:06:04.409Z,1018.34
2023-01-22T07:07:03.800Z,1018.34
2023-01-22T07:08:03.899Z,1018.34
2023-01-22T07:09:03.829Z,1018.35
2023-01-22T07:10:03.790Z,1018.33
2023-01-22T07:11:05.671Z,1018.35
2023-01-22T07:12:03.802Z,1018.36
2023-01-22T07:13:03.872Z,1018.42
2023-01-22T07:14:03.876Z,1018.41
2023-01-22T07:15:03.961Z,1018.46
2023-01-22T07:16:04.061Z,1018.48
2023-01-22T07:17:04.093Z,1018.49
2023-01-22T07:18:04.092Z,1018.52
2023-01-22T07:19:04.086Z,1018.53
2023-01-22T07:20:04.073Z,1018.57
2023-01-22T07:21:09.944Z,1018.58
2023-01-22T07:22:04.324Z,1018.59
2023-01-22T07:23:04.185Z,1018.63
2023-01-22T07:24:04.372Z,1018.64
2023-01-22T07:25:04.388Z,1018.62
2023-01-22T07:26:04.297Z,1018.65
2023-01-22T07:27:03.425Z,1018.67
2023-01-22T07:28:03.513Z,1018.64
2023-01-22T07:29:03.537Z,1018.64
2023-01-22T07:30:03.709Z,1018.67
2023-01-22T07:31:03.636Z,1018.65
2023-01-22T07:32:03.787Z,1018.66
2023-01-22T07:33:04.151Z,1018.67
2023-01-22T07:34:04.144Z,1018.58
2023-01-22T07:35:03.548Z,1018.61
2023-01-22T07:36:03.914Z,1018.57
2023-01-22T07:37:03.865Z,1018.62
2023-01-22T07:38:04.038Z,1018.63
2023-01-22T07:39:04.030Z,1018.65
2023-01-22T07:40:04.067Z,1018.64
2023-01-22T07:41:07.208Z,1018.66
2023-01-22T07:42:04.041Z,1018.59
2023-01-22T07:43:04.088Z,1018.61
2023-01-22T07:44:04.198Z,1018.59
2023-01-22T07:45:04.331Z,1018.56
2023-01-22T07:46:04.398Z,1018.58
2023-01-22T07:47:03.511Z,1018.62
2023-01-22T07:48:03.521Z,1018.54
2023-01-22T07:49:03.588Z,1018.65
2023-01-22T07:50:03.716Z,1018.65
2023-01-22T07:51:03.793Z,1018.71
2023-01-22T07:52:03.931Z,1018.67
2023-01-22T07:53:03.963Z,1018.75
2023-01-22T07:54:04.192Z,1018.62
2023-01-22T07:55:03.565Z,1018.72
2023-01-22T07:56:04.173Z,1018.69
2023-01-22T07:57:03.351Z,1018.69
2023-01-22T07:58:03.471Z,1018.58
2023-01-22T07:59:03.158Z,1018.72
2023-01-22T08:00:03.078Z,1018.63
2023-01-22T08:01:03.363Z,1018.70
2023-01-22T08:02:03.939Z,1018.71
2023-01-22T08:03:03.550Z,1018.72
2023-01-22T08:04:03.623Z,1018.77
2023-01-22T08:05:03.580Z,1018.75
2023-01-22T08:06:03.608Z,1018.80
2023-01-22T08:07:04.394Z,1018.78
2023-01-22T08:08:04.457Z,1018.79
2023-01-22T08:09:04.506Z,1018.82
2023-01-22T08:10:04.725Z,1018.92
2023-01-22T08:11:04.057Z,1018.85
2023-01-22T08:12:03.884Z,1018.93
2023-01-22T08:13:03.955Z,1018.89
2023-01-22T08:14:03.426Z,1018.93
2023-01-22T08:15:03.702Z,1018.96
2023-01-22T08:16:03.919Z,1018.91
2023-01-22T08:17:03.915Z,1018.93
2023-01-22T08:18:03.986Z,1018.92
2023-01-22T08:19:04.116Z,1018.99
2023-01-22T08:20:03.583Z,1019.02
2023-01-22T08:21:03.909Z,1018.97
2023-01-22T08:22:04.292Z,1019.04
2023-01-22T08:23:04.419Z,1019.00
2023-01-22T08:24:03.900Z,1019.00
2023-01-22T08:25:04.430Z,1019.02
2023-01-22T08:26:04.455Z,1018.99
2023-01-22T08:27:04.431Z,1019.05
2023-01-22T08:28:04.482Z,1019.09
2023-01-22T08:29:07.443Z,1019.10
2023-01-22T08:30:04.029Z,1019.13
2023-01-22T08:31:04.505Z,1019.09
2023-01-22T08:32:03.906Z,1019.16
2023-01-22T08:33:03.493Z,1019.11
2023-01-22T08:34:03.734Z,1019.10
2023-01-22T08:35:03.809Z,1019.17
2023-01-22T08:36:03.897Z,1019.14
2023-01-22T08:37:03.890Z,1019.06
2023-01-22T08:38:03.926Z,1019.11
2023-01-22T08:39:03.995Z,1019.14
2023-01-22T08:40:03.932Z,1019.14
2023-01-22T08:41:04.100Z,1019.14
2023-01-22T08:42:04.300Z,1019.10
2023-01-22T08:43:03.780Z,1019.11
2023-01-22T08:44:03.963Z,1019.16
2023-01-22T08:45:04.133Z,1019.14
2023-01-22T08:46:04.254Z,1019.14
2023-01-22T08:47:04.456Z,1019.17
2023-01-22T08:48:04.692Z,1019.10
2023-01-22T08:49:03.985Z,1019.11
2023-01-22T08:50:04.284Z,1019.10
2023-01-22T08:51:04.329Z,1019.08
2023-01-22T08:52:03.974Z,1019.07
2023-01-22T08:53:04.399Z,1019.06
2023-01-22T08:54:04.485Z,1019.07
2023-01-22T08:55:04.476Z,1019.09
2023-01-22T08:56:04.594Z,1019.10
2023-01-22T08:57:03.746Z,1019.19
2023-01-22T08:58:03.307Z,1019.08
2023-01-22T08:59:03.405Z,1019.08
2023-01-22T09:00:03.662Z,1019.18
2023-01-22T09:01:03.852Z,1019.16
2023-01-22T09:02:04.052Z,1019.18
2023-01-22T09:03:03.465Z,1019.10
2023-01-22T09:04:03.872Z,1019.07
2023-01-22T09:05:03.961Z,1019.07
2023-01-22T09:06:04.463Z,1019.05
2023-01-22T09:07:03.591Z,1019.07
2023-01-22T09:08:03.042Z,1019.04
2023-01-22T09:09:03.445Z,1019.06
2023-01-22T09:10:03.637Z,1019.03
2023-01-22T09:11:02.982Z,1019.02
2023-01-22T09:12:04.423Z,1019.06
2023-01-22T09:13:03.617Z,1019.07
2023-01-22T09:14:03.951Z,1019.11
2023-01-22T09:15:03.948Z,1019.08
2023-01-22T09:16:03.409Z,1019.14
2023-01-22T09:17:04.362Z,1019.11
2023-01-22T09:18:04.665Z,1019.14
2023-01-22T09:19:04.013Z,1019.15
2023-01-22T09:20:04.119Z,1019.21
2023-01-22T09:21:04.291Z,1019.13
2023-01-22T09:22:02.814Z,1019.16
2023-01-22T09:23:03.119Z,1019.18
2023-01-22T09:24:03.245Z,1019.14
2023-01-22T09:25:03.296Z,1019.18
2023-01-22T09:26:03.342Z,1019.19
2023-01-22T09:27:04.036Z,1019.22
2023-01-22T09:28:03.398Z,1019.17
2023-01-22T09:29:03.658Z,1019.20
2023-01-22T09:30:09.701Z,1019.29
2023-01-22T09:31:04.176Z,1019.22
2023-01-22T09:32:02.792Z,1019.22
2023-01-22T09:33:02.864Z,1019.25
2023-01-22T09:34:02.965Z,1019.20
2023-01-22T09:35:02.930Z,1019.25
2023-01-22T09:36:03.007Z,1019.16
2023-01-22T09:37:03.021Z,1019.16
2023-01-22T09:38:03.340Z,1019.23
2023-01-22T09:39:03.408Z,1019.18
2023-01-22T09:40:03.389Z,1019.17
2023-01-22T09:41:03.427Z,1019.21
2023-01-22T09:42:03.556Z,1019.20
2023-01-22T09:43:03.832Z,1019.17
2023-01-22T09:44:03.828Z,1019.12
2023-01-22T09:45:03.868Z,1019.21
2023-01-22T09:46:03.939Z,1019.15
2023-01-22T09:47:03.056Z,1019.20
2023-01-22T09:48:03.147Z,1019.18
2023-01-22T09:49:03.225Z,1019.19
2023-01-22T09:50:03.269Z,1019.21
2023-01-22T09:51:03.416Z,1019.25
2023-01-22T09:52:05.171Z,1019.24
2023-01-22T09:53:03.536Z,1019.19
2023-01-22T09:54:03.657Z,1019.23
2023-01-22T09:55:03.692Z,1019.23
2023-01-22T09:56:03.688Z,1019.26
2023-01-22T09:57:03.618Z,1019.30
2023-01-22T09:58:03.870Z,1019.31
2023-01-22T09:59:03.975Z,1019.31
2023-01-22T10:00:03.905Z,1019.23
2023-01-22T10:01:04.127Z,1019.30
2023-01-22T10:02:04.189Z,1019.28
2023-01-22T10:03:04.496Z,1019.29
2023-01-22T10:04:04.481Z,1019.34
2023-01-22T10:05:04.540Z,1019.30
2023-01-22T10:06:04.490Z,1019.27
2023-01-22T10:07:03.653Z,1019.25
2023-01-22T10:08:03.752Z,1019.26
2023-01-22T10:09:03.921Z,1019.31
2023-01-22T10:10:04.087Z,1019.30
2023-01-22T10:11:03.535Z,1019.30
2023-01-22T10:12:03.767Z,1019.27
2023-01-22T10:13:03.895Z,1019.34
2023-01-22T10:14:03.581Z,1019.24
2023-01-22T10:15:03.937Z,1019.34
2023-01-22T10:16:04.067Z,1019.28
2023-01-22T10:17:04.092Z,1019.29
2023-01-22T10:18:04.211Z,1019.30
2023-01-22T10:19:04.322Z,1019.33
2023-01-22T10:20:04.075Z,1019.33
2023-01-22T10:21:04.007Z,1019.38
2023-01-22T10:22:03.314Z,1019.34
2023-01-22T10:23:03.295Z,1019.30
2023-01-22T10:24:03.440Z,1019.38
2023-01-22T10:25:03.596Z,1019.35
2023-01-22T10:26:03.170Z,1019.33
2023-01-22T10:27:03.353Z,1019.29
2023-01-22T10:28:03.244Z,1019.29
2023-01-22T10:29:03.350Z,1019.32
2023-01-22T10:30:03.469Z,1019.31
2023-01-22T10:31:03.690Z,1019.27
2023-01-22T10:32:03.972Z,1019.28
2023-01-22T10:33:03.746Z,1019.31
2023-01-22T10:34:04.196Z,1019.31
2023-01-22T10:35:04.364Z,1019.27
2023-01-22T10:36:03.716Z,1019.25
2023-01-22T10:37:04.066Z,1019.25
2023-01-22T10:38:04.185Z,1019.27
2023-01-22T10:39:04.357Z,1019.22
2023-01-22T10:40:04.764Z,1019.30
2023-01-22T10:41:04.207Z,1019.25
2023-01-22T10:42:03.477Z,1019.27
2023-01-22T10:43:03.772Z,1019.25
2023-01-22T10:44:03.212Z,1019.27
2023-01-22T10:45:03.420Z,1019.25
2023-01-22T10:46:03.663Z,1019.22
2023-01-22T10:47:03.796Z,1019.24
2023-01-22T10:48:03.953Z,1019.21
2023-01-22T10:49:04.051Z,1019.19
2023-01-22T10:50:04.781Z,1019.17
2023-01-22T10:51:04.220Z,1019.23
2023-01-22T10:52:03.334Z,1019.15
2023-01-22T10:53:03.466Z,1019.12
2023-01-22T10:54:03.543Z,1019.15
2023-01-22T10:55:02.978Z,1019.14
2023-01-22T10:56:03.646Z,1019.14
2023-01-22T10:57:03.767Z,1019.16
2023-01-22T10:58:04.054Z,1019.15
2023-01-22T10:59:04.081Z,1019.13
2023-01-22T11:00:03.446Z,1019.10
2023-01-22T11:01:03.899Z,1019.08
2023-01-22T11:02:04.531Z,1019.06
2023-01-22T11:03:04.779Z,1019.07
2023-01-22T11:04:04.871Z,1019.05
2023-01-22T11:05:04.972Z,1018.98
2023-01-22T11:06:04.438Z,1019.02
2023-01-22T11:07:04.869Z,1019.04
2023-01-22T11:08:05.004Z,1019.00
2023-01-22T11:09:04.938Z,1019.04
2023-01-22T11:10:04.876Z,1019.06
2023-01-22T11:11:04.886Z,1019.11
2023-01-22T11:12:03.978Z,1019.09
2023-01-22T11:13:04.010Z,1019.04
2023-01-22T11:14:04.081Z,1019.02
2023-01-22T11:15:04.176Z,1019.01
2023-01-22T11:16:04.228Z,1019.03
2023-01-22T11:17:04.446Z,1019.02
2023-01-22T11:18:04.536Z,1018.99
2023-01-22T11:19:04.636Z,1019.00
2023-01-22T11:20:04.071Z,1019.06
2023-01-22T11:21:04.407Z,1019.05
2023-01-22T11:22:04.484Z,1019.09
2023-01-22T11:23:04.766Z,1019.09
2023-01-22T11:24:04.231Z,1019.08
2023-01-22T11:25:05.827Z,1019.09
2023-01-22T11:26:04.913Z,1019.12
2023-01-22T11:27:03.977Z,1019.08
2023-01-22T11:28:04.217Z,1019.08
2023-01-22T11:29:03.617Z,1019.13
2023-01-22T11:30:03.947Z,1019.05
2023-01-22T11:31:04.264Z,1019.06
2023-01-22T11:32:04.394Z,1019.04
2023-01-22T11:33:04.792Z,1019.03
2023-01-22T11:34:04.215Z,1019.07
2023-01-22T11:35:04.204Z,1019.01
2023-01-22T11:36:04.593Z,1019.08
2023-01-22T11:37:04.772Z,1019.12
2023-01-22T11:38:04.968Z,1019.10
2023-01-22T11:39:04.663Z,1019.14
2023-01-22T11:40:04.705Z,1019.14
2023-01-22T11:41:04.991Z,1019.18
2023-01-22T11:42:04.105Z,1019.18
2023-01-22T11:43:04.187Z,1019.22
2023-01-22T11:44:03.648Z,1019.10
2023-01-22T11:45:04.024Z,1019.19
2023-01-22T11:46:04.171Z,1019.18
2023-01-22T11:47:04.307Z,1019.15
2023-01-22T11:48:04.602Z,1019.16
2023-01-22T11:49:04.024Z,1019.12
2023-01-22T11:50:02.632Z,1019.09
2023-01-22T11:51:04.265Z,1019.00
2023-01-22T11:52:04.422Z,1019.07
2023-01-22T11:53:04.542Z,1019.02
2023-01-22T11:54:03.155Z,1018.98
2023-01-22T11:55:04.295Z,1019.03
2023-01-22T11:56:02.859Z,1018.98
2023-01-22T11:57:04.555Z,1018.97
2023-01-22T11:58:04.735Z,1019.01
2023-01-22T11:59:04.726Z,1018.96
2023-01-22T12:00:04.209Z,1018.98
2023-01-22T12:01:04.390Z,1018.92
2023-01-22T12:02:04.583Z,1018.88
2023-01-22T12:03:04.723Z,1018.88
2023-01-22T12:04:04.667Z,1018.86
2023-01-22T12:05:04.736Z,1018.91